createdAt,value
2018-08-19T00:34:47.483Z,7.53
2018-08-19T00:37:18.633Z,6.20
2018-08-19T00:39:49.580Z,7.10
2018-08-19T00:42:20.655Z,8.77
2018-08-19T00:44:51.577Z,7.47
2018-08-19T00:47:22.759Z,7.30
2018-08-19T00:50:00.722Z,7.10
2018-08-19T00:52:31.887Z,9.77
2018-08-19T00:55:02.800Z,7.20
2018-08-19T00:57:33.759Z,8.43
2018-08-19T01:00:05.033Z,7.40
2018-08-19T01:02:36.274Z,7.73
2018-08-19T01:05:07.272Z,7.43
2018-08-19T01:07:38.511Z,10.83
2018-08-19T01:10:09.755Z,7.33
2018-08-19T01:12:40.711Z,8.67
2018-08-19T01:15:14.990Z,7.73
2018-08-19T01:17:46.565Z,9.10
2018-08-19T01:20:23.201Z,9.53
2018-08-19T01:22:54.228Z,8.33
2018-08-19T01:25:25.325Z,7.90
2018-08-19T01:27:56.369Z,7.47
2018-08-19T01:30:27.937Z,10.17
2018-08-19T01:32:59.025Z,9.80
2018-08-19T01:35:38.091Z,8.83
2018-08-19T01:38:09.115Z,11.83
2018-08-19T01:40:40.103Z,8.43
2018-08-19T01:43:11.007Z,9.47
2018-08-19T01:45:42.040Z,10.30
2018-08-19T01:48:13.119Z,8.83
2018-08-19T01:50:44.122Z,8.23
2018-08-19T01:53:15.105Z,11.13
2018-08-19T01:55:45.981Z,9.90
2018-08-19T01:58:17.033Z,11.63
2018-08-19T02:00:48.056Z,10.83
2018-08-19T02:03:19.106Z,8.50
2018-08-19T02:05:50.118Z,10.50
2018-08-19T02:08:21.596Z,9.20
2018-08-19T02:10:52.544Z,9.30
2018-08-19T02:13:24.650Z,9.30
2018-08-19T02:15:55.711Z,9.17
2018-08-19T02:18:27.663Z,10.40
2018-08-19T02:21:00.742Z,9.57
2018-08-19T02:23:33.993Z,10.93
2018-08-19T02:26:05.019Z,9.57
2018-08-19T02:28:35.938Z,10.00
2018-08-19T02:31:07.031Z,10.03
2018-08-19T02:33:38.038Z,10.03
2018-08-19T02:36:09.552Z,12.77
2018-08-19T02:38:40.437Z,9.97
2018-08-19T02:41:11.446Z,10.67
2018-08-19T02:44:00.234Z,10.90
2018-08-19T02:46:31.304Z,10.70
2018-08-19T02:49:02.399Z,11.17
2018-08-19T02:51:33.368Z,11.77
2018-08-19T02:54:04.480Z,9.80
2018-08-19T02:56:35.462Z,10.43
2018-08-19T02:59:06.505Z,10.17
2018-08-19T03:01:37.654Z,11.20
2018-08-19T03:04:08.713Z,10.63
2018-08-19T03:06:39.593Z,10.30
2018-08-19T03:09:13.533Z,9.87
2018-08-19T03:11:44.488Z,11.00
2018-08-19T03:14:15.496Z,11.03
2018-08-19T03:16:46.434Z,11.30
2018-08-19T03:19:17.526Z,10.20
2018-08-19T03:21:48.499Z,11.77
2018-08-19T03:24:19.458Z,10.77
2018-08-19T03:26:50.503Z,12.10
2018-08-19T03:29:21.483Z,11.73
2018-08-19T03:31:56.680Z,10.50
2018-08-19T03:34:28.210Z,10.60
2018-08-19T03:37:01.058Z,10.77
2018-08-19T03:39:32.034Z,13.13
2018-08-19T03:42:03.171Z,10.80
2018-08-19T03:44:34.858Z,13.53
2018-08-19T03:47:09.852Z,10.30
2018-08-19T03:49:40.836Z,10.87
2018-08-19T03:52:13.806Z,10.97
2018-08-19T03:54:46.194Z,10.47
2018-08-19T03:57:21.440Z,12.40
2018-08-19T03:59:52.327Z,10.60
2018-08-19T04:02:23.311Z,10.83
2018-08-19T04:04:54.284Z,11.77
2018-08-19T08:05:08.111Z,7.10
2018-08-19T08:07:43.176Z,7.43
2018-08-19T08:10:14.154Z,6.33
2018-08-19T08:12:45.694Z,7.87
2018-08-19T08:15:18.447Z,6.83
2018-08-19T08:17:49.429Z,9.83
2018-08-19T08:20:20.364Z,7.27
2018-08-19T08:22:51.429Z,7.40
2018-08-19T08:25:22.533Z,8.70
2018-08-19T08:27:53.620Z,7.77
2018-08-19T08:30:24.784Z,10.00
2018-08-19T08:32:55.754Z,8.10
2018-08-19T08:35:26.760Z,6.80
2018-08-19T08:37:57.740Z,8.90
2018-08-19T08:40:28.829Z,6.70
2018-08-19T08:42:59.857Z,5.90
2018-08-19T08:45:34.839Z,6.83
2018-08-19T08:48:05.958Z,6.30
2018-08-19T08:50:36.950Z,6.40
2018-08-19T08:53:10.349Z,5.97
2018-08-19T08:55:41.419Z,6.00
2018-08-19T08:58:13.846Z,7.53
2018-08-19T09:00:47.177Z,5.80
2018-08-19T09:03:18.942Z,6.27
2018-08-19T09:05:51.482Z,6.33
2018-08-19T09:08:22.455Z,5.63
2018-08-19T09:10:53.339Z,6.27
2018-08-19T09:13:24.261Z,5.67
2018-08-19T09:15:57.975Z,5.20
2018-08-19T09:18:28.931Z,5.30
2018-08-19T09:20:59.884Z,5.23
2018-08-19T09:23:30.937Z,5.20
2018-08-19T09:26:06.725Z,5.13
2018-08-19T09:28:39.498Z,6.47
2018-08-19T09:34:01.669Z,5.20
2018-08-19T09:36:32.662Z,5.03
2018-08-19T09:39:03.947Z,4.70
2018-08-19T09:41:37.354Z,5.03
2018-08-19T09:44:08.386Z,4.47
2018-08-19T09:46:39.398Z,5.40
2018-08-19T09:49:10.361Z,5.10
2018-08-19T09:51:41.323Z,5.53
2018-08-19T09:54:15.104Z,4.93
2018-08-19T09:56:47.025Z,4.60
2018-08-19T09:59:18.087Z,4.83
2018-08-19T10:01:49.033Z,4.83
2018-08-19T10:04:22.282Z,5.83
2018-08-19T10:07:17.540Z,4.53
2018-08-19T10:09:51.991Z,8.00
2018-08-19T10:12:30.682Z,4.73
2018-08-19T10:15:02.384Z,5.33
2018-08-19T10:17:33.559Z,4.57
2018-08-19T10:20:04.776Z,5.10
2018-08-19T10:22:41.715Z,5.80
2018-08-19T10:25:18.722Z,4.33
2018-08-19T10:27:51.271Z,4.50
2018-08-19T10:47:56.400Z,5.10
2018-08-19T10:50:29.594Z,5.93
2018-08-19T10:53:00.648Z,5.47
2018-08-19T10:55:31.749Z,4.63
2018-08-19T10:58:02.693Z,4.80
2018-08-19T11:00:33.697Z,4.60
2018-08-19T11:03:11.632Z,5.30
2018-08-19T11:05:43.862Z,4.40
2018-08-19T11:08:15.246Z,4.43
2018-08-19T11:10:46.177Z,4.10
2018-08-19T11:13:24.446Z,3.90
2018-08-19T11:15:56.592Z,3.20
2018-08-19T11:18:40.365Z,4.50
2018-08-19T11:21:15.987Z,3.90
2018-08-19T11:23:47.827Z,3.83
2018-08-19T11:26:18.914Z,4.27
2018-08-19T11:28:55.848Z,4.30
2018-08-19T11:31:32.041Z,4.07
2018-08-19T11:34:04.829Z,4.53
2018-08-19T11:36:40.871Z,4.57
2018-08-19T11:39:14.520Z,4.50
2018-08-19T11:41:45.470Z,5.20
2018-08-19T11:44:17.781Z,4.53
2018-08-19T11:46:48.780Z,5.73
2018-08-19T11:49:20.595Z,4.77
2018-08-19T11:52:10.067Z,4.90
2018-08-19T11:54:41.141Z,4.63
2018-08-19T11:57:13.206Z,4.83
2018-08-19T11:59:45.520Z,4.73
2018-08-19T12:02:21.150Z,3.77
2018-08-19T12:04:52.099Z,4.50
2018-08-19T12:07:22.997Z,3.90
2018-08-19T12:10:00.847Z,4.00
2018-08-19T12:12:47.051Z,3.87
2018-08-19T12:15:18.196Z,4.50
2018-08-19T12:17:49.182Z,3.70
2018-08-19T12:20:38.966Z,4.07
2018-08-19T12:23:10.657Z,3.83
2018-08-19T12:25:41.704Z,5.90
2018-08-19T12:28:12.824Z,4.20
2018-08-19T12:30:47.272Z,5.70
2018-08-19T12:33:27.020Z,4.40
2018-08-19T12:35:58.701Z,6.03
2018-08-19T12:38:31.662Z,3.90
2018-08-19T12:41:05.282Z,4.10
2018-08-19T12:43:36.694Z,4.63
2018-08-19T12:46:07.695Z,4.40
2018-08-19T12:48:38.547Z,4.33
2018-08-19T12:51:09.419Z,4.97
2018-08-19T12:53:41.175Z,4.80
2018-08-19T12:56:12.832Z,4.93
2018-08-19T12:58:45.155Z,4.30
2018-08-19T13:01:16.141Z,4.70
2018-08-19T13:03:47.187Z,4.40
2018-08-19T13:06:18.779Z,6.17
2018-08-19T13:08:51.140Z,5.40
2018-08-19T13:11:23.807Z,4.80
2018-08-19T13:13:54.836Z,5.70
2018-08-19T13:16:25.764Z,5.27
2018-08-19T13:18:56.812Z,6.97
2018-08-19T13:21:28.386Z,4.53
2018-08-19T13:23:59.334Z,6.23
2018-08-19T13:26:30.570Z,5.10
2018-08-19T13:29:01.794Z,4.77
2018-08-19T13:31:34.865Z,4.30
2018-08-19T13:34:05.846Z,4.70
2018-08-19T13:36:36.797Z,5.20
2018-08-19T13:39:09.919Z,4.70
2018-08-19T13:41:40.935Z,5.13
2018-08-19T13:44:12.107Z,4.87
2018-08-19T13:46:43.221Z,4.60
2018-08-19T13:49:15.625Z,4.10
2018-08-19T13:51:46.814Z,4.83
2018-08-19T13:54:17.996Z,6.00
2018-08-19T13:56:49.102Z,5.23
2018-08-19T13:59:20.109Z,5.87
2018-08-19T14:01:51.215Z,6.63
2018-08-19T14:04:22.211Z,5.10
2018-08-19T14:06:53.327Z,6.13
2018-08-19T14:09:24.387Z,5.00
2018-08-19T14:11:55.787Z,5.13
2018-08-19T14:14:26.677Z,6.13
2018-08-19T14:16:57.884Z,5.00
2018-08-19T14:19:28.972Z,5.40
2018-08-19T14:22:02.369Z,5.10
2018-08-19T14:24:44.818Z,5.03
2018-08-19T14:27:19.431Z,4.77
2018-08-19T14:29:51.557Z,4.87
2018-08-19T14:32:51.737Z,6.67
2018-08-19T14:35:30.204Z,4.97
2018-08-19T14:38:02.097Z,5.47
2018-08-19T14:40:34.591Z,6.30
2018-08-19T14:43:15.434Z,5.33
2018-08-19T14:45:46.972Z,5.53
2018-08-19T14:48:18.234Z,6.07
2018-08-19T14:50:49.713Z,6.30
2018-08-19T14:53:20.893Z,4.97
2018-08-19T14:55:57.051Z,6.13
2018-08-19T14:58:28.272Z,4.90
2018-08-19T15:01:00.239Z,5.57
2018-08-19T15:03:31.207Z,7.00
2018-08-19T15:06:05.455Z,5.50
2018-08-19T15:08:37.539Z,5.20
2018-08-19T15:11:08.708Z,5.43
2018-08-19T15:13:40.190Z,6.23
2018-08-19T15:16:11.160Z,6.47
2018-08-19T15:18:46.227Z,6.40
2018-08-19T15:21:19.886Z,5.50
2018-08-19T15:23:52.389Z,5.60
2018-08-19T15:26:23.800Z,5.33
2018-08-19T17:03:38.255Z,5.70
2018-08-19T17:06:12.401Z,5.97
2018-08-19T17:08:45.218Z,6.03
2018-08-19T17:11:16.850Z,5.67
2018-08-19T17:13:48.150Z,9.17
2018-08-19T17:16:19.721Z,6.03
2018-08-19T17:18:52.736Z,6.23
2018-08-19T17:21:24.187Z,7.80
2018-08-19T17:23:55.533Z,10.07
2018-08-19T17:26:26.837Z,5.67
2018-08-19T17:29:05.848Z,7.87
2018-08-19T17:31:37.278Z,6.03
2018-08-19T17:34:13.745Z,6.17
2018-08-19T17:36:45.410Z,6.87
2018-08-19T17:39:22.126Z,9.10
2018-08-19T17:41:54.144Z,6.13
2018-08-19T17:44:25.342Z,8.23
2018-08-19T17:46:57.781Z,6.53
2018-08-19T17:49:32.776Z,8.10
2018-08-19T17:52:04.829Z,10.27
2018-08-19T17:54:36.430Z,8.90
2018-08-19T17:57:07.906Z,7.97
2018-08-19T17:59:41.856Z,8.47
2018-08-19T18:02:13.939Z,6.10
2018-08-19T18:04:48.004Z,9.20
2018-08-19T18:07:27.693Z,8.37
2018-08-19T18:10:01.398Z,8.40
2018-08-19T18:12:35.389Z,12.93
2018-08-19T18:15:17.411Z,8.00
2018-08-19T18:18:03.244Z,15.00
2018-08-19T18:20:45.518Z,9.17
2018-08-19T18:23:40.209Z,9.93
2018-08-19T18:26:55.997Z,9.53
2018-08-19T18:30:02.603Z,8.43
2018-08-19T19:38:59.883Z,9.70
2018-08-19T19:41:43.113Z,10.60
2018-08-19T19:44:50.543Z,7.73
2018-08-19T19:47:27.525Z,7.57
2018-08-19T19:49:59.586Z,7.53
2018-08-19T19:53:00.906Z,10.63
2018-08-19T19:55:36.481Z,8.33
2018-08-19T19:58:09.684Z,7.53
2018-08-19T20:00:57.019Z,6.73
2018-08-19T20:03:29.351Z,6.73
2018-08-19T20:06:00.160Z,8.80
2018-08-19T20:08:31.042Z,8.20
2018-08-19T20:11:01.860Z,8.70
2018-08-19T20:13:33.723Z,7.60
2018-08-19T20:16:07.032Z,9.60
2018-08-19T20:21:30.100Z,7.13
2018-08-19T20:24:03.159Z,7.47
2018-08-19T20:29:37.940Z,7.50
2018-08-19T20:32:09.134Z,7.20
2018-08-19T20:34:39.922Z,7.83
2018-08-19T20:37:10.846Z,7.60
2018-08-19T20:39:41.842Z,6.90
2018-08-19T20:42:12.797Z,7.00
2018-08-19T20:44:43.712Z,7.10
2018-08-19T20:47:14.911Z,7.10
2018-08-19T20:49:50.279Z,7.60
2018-08-19T20:52:39.497Z,6.80
2018-08-19T20:55:11.094Z,7.43
2018-08-19T20:57:42.058Z,7.40
2018-08-19T21:00:13.552Z,6.73
2018-08-19T21:02:44.394Z,8.63
2018-08-19T21:05:15.225Z,9.37
2018-08-19T21:07:46.269Z,9.73
2018-08-19T21:10:17.148Z,8.73
2018-08-19T21:12:47.931Z,9.13
2018-08-19T21:15:23.780Z,6.70
2018-08-19T21:17:54.632Z,7.57
2018-08-19T21:20:25.480Z,7.97
2018-08-19T21:22:56.299Z,9.87
2018-08-19T21:25:27.401Z,7.23
2018-08-19T21:28:01.702Z,7.63
2018-08-19T21:30:40.858Z,9.07
2018-08-19T21:33:11.837Z,10.37
2018-08-19T21:35:47.997Z,7.07
2018-08-19T21:38:18.966Z,7.43
2018-08-19T21:40:53.037Z,6.07
2018-08-19T21:43:33.328Z,8.13
2018-08-19T21:46:04.401Z,7.33
2018-08-19T21:48:35.450Z,7.93
2018-08-19T21:51:06.850Z,7.60
2018-08-19T21:53:38.467Z,6.47
2018-08-19T21:56:09.672Z,6.33
2018-08-19T21:58:40.996Z,8.40
2018-08-19T22:01:17.090Z,7.37
2018-08-19T22:03:49.149Z,7.27
2018-08-19T22:06:20.130Z,8.27
2018-08-19T22:08:51.369Z,6.93
2018-08-19T22:11:22.555Z,6.80
2018-08-19T22:13:53.603Z,6.40
2018-08-19T22:16:24.752Z,6.50
2018-08-19T22:18:55.881Z,6.90
2018-08-19T22:21:27.919Z,7.27
2018-08-19T22:23:59.197Z,6.63
2018-08-19T22:26:31.003Z,6.90
2018-08-19T22:29:15.896Z,6.93
2018-08-19T22:31:47.218Z,6.97
2018-08-19T22:34:18.373Z,6.83
2018-08-19T22:36:49.572Z,8.93
2018-08-19T22:39:21.304Z,7.03
2018-08-19T22:41:53.167Z,6.53
2018-08-19T22:44:24.415Z,7.90
2018-08-19T22:46:55.597Z,6.60
2018-08-19T22:49:29.516Z,6.47
2018-08-19T22:52:17.801Z,6.93
2018-08-19T22:54:51.093Z,7.10
2018-08-19T22:57:23.512Z,6.60
2018-08-19T22:59:56.233Z,7.20
2018-08-19T23:02:27.899Z,7.23
2018-08-19T23:05:02.596Z,8.43
2018-08-19T23:07:38.517Z,8.40
2018-08-19T23:10:14.780Z,9.13
2018-08-19T23:12:46.342Z,7.63
2018-08-19T23:15:34.202Z,6.73
2018-08-19T23:18:09.900Z,7.33
2018-08-19T23:20:42.545Z,7.17
2018-08-19T23:23:13.712Z,7.23
2018-08-19T23:25:46.137Z,7.57
2018-08-19T23:28:18.023Z,7.43
2018-08-19T23:30:49.586Z,8.80
2018-08-19T23:33:20.846Z,7.20
2018-08-19T23:35:52.246Z,7.50
2018-08-19T23:38:25.306Z,7.17
2018-08-19T23:40:56.547Z,7.33
2018-08-19T23:43:27.919Z,7.37
2018-08-19T23:45:59.514Z,9.53
2018-08-19T23:48:30.390Z,8.93
2018-08-19T23:51:01.211Z,6.97
2018-08-19T23:53:32.023Z,7.53
2018-08-19T23:56:02.905Z,7.30
2018-08-19T23:58:33.815Z,7.33
